sensor_id;sensor_type;location;lat;lon;timestamp;P1;durP1;ratioP1;P2;durP2;ratioP2
16642;SDS011;8435;52.184;5.406;2023-04-25T00:00:33;8.30;;;3.20;;
16642;SDS011;8435;52.184;5.406;2023-04-25T00:03:00;11.37;;;3.57;;
16642;SDS011;8435;52.184;5.406;2023-04-25T00:05:29;11.43;;;3.43;;
16642;SDS011;8435;52.184;5.406;2023-04-25T00:07:56;9.23;;;3.27;;
16642;SDS011;8435;52.184;5.406;2023-04-25T00:10:23;6.40;;;3.10;;
16642;SDS011;8435;52.184;5.406;2023-04-25T00:12:50;10.40;;;3.40;;
16642;SDS011;8435;52.184;5.406;2023-04-25T00:15:18;8.23;;;3.13;;
16642;SDS011;8435;52.184;5.406;2023-04-25T00:17:45;5.27;;;3.00;;
16642;SDS011;8435;52.184;5.406;2023-04-25T00:20:13;10.17;;;3.80;;
16642;SDS011;8435;52.184;5.406;2023-04-25T00:22:40;6.10;;;3.30;;
16642;SDS011;8435;52.184;5.406;2023-04-25T00:25:07;8.70;;;3.53;;
16642;SDS011;8435;52.184;5.406;2023-04-25T00:27:34;8.07;;;3.60;;
16642;SDS011;8435;52.184;5.406;2023-04-25T00:30:01;9.77;;;3.40;;
16642;SDS011;8435;52.184;5.406;2023-04-25T00:32:30;7.97;;;3.70;;
16642;SDS011;8435;52.184;5.406;2023-04-25T00:34:56;7.73;;;3.30;;
16642;SDS011;8435;52.184;5.406;2023-04-25T00:37:23;7.47;;;3.43;;
16642;SDS011;8435;52.184;5.406;2023-04-25T00:39:50;10.60;;;4.10;;
16642;SDS011;8435;52.184;5.406;2023-04-25T00:42:18;11.00;;;3.87;;
16642;SDS011;8435;52.184;5.406;2023-04-25T00:44:45;9.13;;;3.00;;
16642;SDS011;8435;52.184;5.406;2023-04-25T00:47:12;9.63;;;4.03;;
16642;SDS011;8435;52.184;5.406;2023-04-25T00:49:41;11.40;;;4.20;;
16642;SDS011;8435;52.184;5.406;2023-04-25T00:52:07;17.37;;;3.53;;
16642;SDS011;8435;52.184;5.406;2023-04-25T00:54:34;9.70;;;3.30;;
16642;SDS011;8435;52.184;5.406;2023-04-25T00:57:01;10.13;;;3.80;;
16642;SDS011;8435;52.184;5.406;2023-04-25T00:59:35;8.40;;;3.47;;
16642;SDS011;8435;52.184;5.406;2023-04-25T01:02:14;7.97;;;2.80;;
16642;SDS011;8435;52.184;5.406;2023-04-25T01:04:42;8.77;;;3.13;;
16642;SDS011;8435;52.184;5.406;2023-04-25T01:07:10;6.77;;;3.07;;
16642;SDS011;8435;52.184;5.406;2023-04-25T01:09:40;5.77;;;3.03;;
16642;SDS011;8435;52.184;5.406;2023-04-25T01:12:09;9.67;;;3.00;;
16642;SDS011;8435;52.184;5.406;2023-04-25T01:14:36;7.53;;;3.20;;
16642;SDS011;8435;52.184;5.406;2023-04-25T01:17:03;9.73;;;3.20;;
16642;SDS011;8435;52.184;5.406;2023-04-25T01:19:32;8.03;;;2.70;;
16642;SDS011;8435;52.184;5.406;2023-04-25T01:22:00;7.03;;;3.53;;
16642;SDS011;8435;52.184;5.406;2023-04-25T01:24:28;6.37;;;2.90;;
16642;SDS011;8435;52.184;5.406;2023-04-25T01:27:02;7.57;;;3.27;;
16642;SDS011;8435;52.184;5.406;2023-04-25T01:29:30;7.80;;;2.93;;
16642;SDS011;8435;52.184;5.406;2023-04-25T01:31:58;6.87;;;3.33;;
16642;SDS011;8435;52.184;5.406;2023-04-25T01:34:26;6.07;;;2.93;;
16642;SDS011;8435;52.184;5.406;2023-04-25T01:36:52;8.43;;;3.30;;
16642;SDS011;8435;52.184;5.406;2023-04-25T01:39:21;8.93;;;3.07;;
16642;SDS011;8435;52.184;5.406;2023-04-25T01:41:48;8.37;;;3.57;;
16642;SDS011;8435;52.184;5.406;2023-04-25T01:44:15;6.07;;;2.90;;
16642;SDS011;8435;52.184;5.406;2023-04-25T01:46:42;8.83;;;2.80;;
16642;SDS011;8435;52.184;5.406;2023-04-25T01:49:09;5.30;;;2.70;;
16642;SDS011;8435;52.184;5.406;2023-04-25T01:51:37;7.87;;;3.30;;
16642;SDS011;8435;52.184;5.406;2023-04-25T01:54:04;4.07;;;2.70;;
16642;SDS011;8435;52.184;5.406;2023-04-25T01:56:36;5.27;;;2.43;;
16642;SDS011;8435;52.184;5.406;2023-04-25T01:59:03;9.40;;;4.27;;
16642;SDS011;8435;52.184;5.406;2023-04-25T02:01:33;8.23;;;3.03;;
16642;SDS011;8435;52.184;5.406;2023-04-25T02:04:03;7.20;;;2.77;;
16642;SDS011;8435;52.184;5.406;2023-04-25T02:06:30;7.00;;;2.70;;
16642;SDS011;8435;52.184;5.406;2023-04-25T02:08:57;5.43;;;2.27;;
16642;SDS011;8435;52.184;5.406;2023-04-25T02:11:24;7.87;;;2.83;;
16642;SDS011;8435;52.184;5.406;2023-04-25T02:13:52;6.40;;;2.60;;
16642;SDS011;8435;52.184;5.406;2023-04-25T02:16:19;6.73;;;2.50;;
16642;SDS011;8435;52.184;5.406;2023-04-25T02:18:45;8.00;;;2.50;;
16642;SDS011;8435;52.184;5.406;2023-04-25T02:21:12;4.03;;;2.57;;
16642;SDS011;8435;52.184;5.406;2023-04-25T02:23:40;5.93;;;2.67;;
16642;SDS011;8435;52.184;5.406;2023-04-25T02:26:07;5.07;;;2.70;;
16642;SDS011;8435;52.184;5.406;2023-04-25T02:28:33;7.67;;;2.43;;
16642;SDS011;8435;52.184;5.406;2023-04-25T02:31:01;6.37;;;2.67;;
16642;SDS011;8435;52.184;5.406;2023-04-25T02:33:28;6.07;;;2.70;;
16642;SDS011;8435;52.184;5.406;2023-04-25T02:35:57;6.43;;;2.77;;
16642;SDS011;8435;52.184;5.406;2023-04-25T02:38:24;4.70;;;2.50;;
16642;SDS011;8435;52.184;5.406;2023-04-25T02:40:51;6.70;;;3.00;;
16642;SDS011;8435;52.184;5.406;2023-04-25T02:43:18;7.50;;;3.30;;
16642;SDS011;8435;52.184;5.406;2023-04-25T02:45:45;6.53;;;2.50;;
16642;SDS011;8435;52.184;5.406;2023-04-25T02:48:13;7.37;;;3.00;;
16642;SDS011;8435;52.184;5.406;2023-04-25T02:50:40;7.73;;;3.10;;
16642;SDS011;8435;52.184;5.406;2023-04-25T02:53:07;6.23;;;2.80;;
16642;SDS011;8435;52.184;5.406;2023-04-25T02:55:35;6.70;;;3.00;;
16642;SDS011;8435;52.184;5.406;2023-04-25T02:58:02;8.47;;;3.13;;
16642;SDS011;8435;52.184;5.406;2023-04-25T03:00:33;4.13;;;2.47;;
16642;SDS011;8435;52.184;5.406;2023-04-25T03:03:00;6.13;;;2.80;;
16642;SDS011;8435;52.184;5.406;2023-04-25T03:05:28;6.83;;;2.77;;
16642;SDS011;8435;52.184;5.406;2023-04-25T03:07:57;4.23;;;2.10;;
16642;SDS011;8435;52.184;5.406;2023-04-25T03:10:23;8.63;;;3.10;;
16642;SDS011;8435;52.184;5.406;2023-04-25T03:12:50;6.10;;;2.93;;
16642;SDS011;8435;52.184;5.406;2023-04-25T03:15:17;7.57;;;3.10;;
16642;SDS011;8435;52.184;5.406;2023-04-25T03:17:44;7.40;;;2.93;;
16642;SDS011;8435;52.184;5.406;2023-04-25T03:20:11;7.07;;;3.03;;
16642;SDS011;8435;52.184;5.406;2023-04-25T03:22:39;5.27;;;2.60;;
16642;SDS011;8435;52.184;5.406;2023-04-25T03:25:06;5.77;;;2.83;;
16642;SDS011;8435;52.184;5.406;2023-04-25T03:27:34;5.97;;;2.97;;
16642;SDS011;8435;52.184;5.406;2023-04-25T03:30:01;5.73;;;3.00;;
16642;SDS011;8435;52.184;5.406;2023-04-25T03:32:28;7.37;;;3.03;;
16642;SDS011;8435;52.184;5.406;2023-04-25T03:34:55;9.13;;;3.00;;
16642;SDS011;8435;52.184;5.406;2023-04-25T03:37:24;6.20;;;3.17;;
16642;SDS011;8435;52.184;5.406;2023-04-25T03:39:55;7.27;;;2.93;;
16642;SDS011;8435;52.184;5.406;2023-04-25T03:42:21;6.77;;;3.27;;
16642;SDS011;8435;52.184;5.406;2023-04-25T03:44:48;6.90;;;3.23;;
16642;SDS011;8435;52.184;5.406;2023-04-25T03:47:15;6.33;;;2.97;;
16642;SDS011;8435;52.184;5.406;2023-04-25T03:49:42;8.90;;;3.50;;
16642;SDS011;8435;52.184;5.406;2023-04-25T03:52:09;6.90;;;3.27;;
16642;SDS011;8435;52.184;5.406;2023-04-25T03:54:36;7.57;;;3.10;;
16642;SDS011;8435;52.184;5.406;2023-04-25T03:57:04;8.10;;;2.77;;
16642;SDS011;8435;52.184;5.406;2023-04-25T03:59:31;5.67;;;2.50;;
16642;SDS011;8435;52.184;5.406;2023-04-25T04:01:59;6.33;;;2.97;;
16642;SDS011;8435;52.184;5.406;2023-04-25T04:04:26;6.13;;;2.70;;
16642;SDS011;8435;52.184;5.406;2023-04-25T04:06:53;8.87;;;2.53;;
16642;SDS011;8435;52.184;5.406;2023-04-25T04:09:20;3.67;;;2.00;;
16642;SDS011;8435;52.184;5.406;2023-04-25T04:11:47;5.30;;;2.57;;
16642;SDS011;8435;52.184;5.406;2023-04-25T04:14:16;6.80;;;2.10;;
16642;SDS011;8435;52.184;5.406;2023-04-25T04:16:43;6.47;;;2.93;;
16642;SDS011;8435;52.184;5.406;2023-04-25T04:19:09;4.87;;;1.63;;
16642;SDS011;8435;52.184;5.406;2023-04-25T04:21:39;5.03;;;1.70;;
16642;SDS011;8435;52.184;5.406;2023-04-25T04:24:05;5.83;;;1.80;;
16642;SDS011;8435;52.184;5.406;2023-04-25T04:26:35;3.77;;;1.70;;
16642;SDS011;8435;52.184;5.406;2023-04-25T04:29:03;2.73;;;1.60;;
16642;SDS011;8435;52.184;5.406;2023-04-25T04:31:31;4.57;;;1.40;;
16642;SDS011;8435;52.184;5.406;2023-04-25T04:34:00;4.47;;;1.50;;
16642;SDS011;8435;52.184;5.406;2023-04-25T04:36:30;2.33;;;1.33;;
16642;SDS011;8435;52.184;5.406;2023-04-25T04:38:57;3.40;;;1.50;;
16642;SDS011;8435;52.184;5.406;2023-04-25T04:41:23;5.17;;;1.70;;
16642;SDS011;8435;52.184;5.406;2023-04-25T04:43:53;4.90;;;1.43;;
16642;SDS011;8435;52.184;5.406;2023-04-25T04:46:23;5.37;;;1.60;;
16642;SDS011;8435;52.184;5.406;2023-04-25T04:48:51;4.47;;;1.47;;
16642;SDS011;8435;52.184;5.406;2023-04-25T04:51:18;3.23;;;2.00;;
16642;SDS011;8435;52.184;5.406;2023-04-25T04:53:47;5.13;;;2.07;;
16642;SDS011;8435;52.184;5.406;2023-04-25T04:56:14;6.03;;;1.53;;
16642;SDS011;8435;52.184;5.406;2023-04-25T04:58:41;2.80;;;1.67;;
16642;SDS011;8435;52.184;5.406;2023-04-25T05:01:09;5.70;;;1.47;;
16642;SDS011;8435;52.184;5.406;2023-04-25T05:03:37;8.80;;;1.53;;
16642;SDS011;8435;52.184;5.406;2023-04-25T05:06:05;4.63;;;1.60;;
16642;SDS011;8435;52.184;5.406;2023-04-25T05:08:33;4.43;;;1.80;;
16642;SDS011;8435;52.184;5.406;2023-04-25T05:11:00;5.00;;;1.67;;
16642;SDS011;8435;52.184;5.406;2023-04-25T05:13:27;3.63;;;1.50;;
16642;SDS011;8435;52.184;5.406;2023-04-25T05:15:54;3.50;;;1.70;;
16642;SDS011;8435;52.184;5.406;2023-04-25T05:18:20;4.37;;;2.10;;
16642;SDS011;8435;52.184;5.406;2023-04-25T05:20:47;4.07;;;1.37;;
16642;SDS011;8435;52.184;5.406;2023-04-25T05:23:15;3.33;;;2.10;;
16642;SDS011;8435;52.184;5.406;2023-04-25T05:25:42;5.13;;;1.90;;
16642;SDS011;8435;52.184;5.406;2023-04-25T05:28:10;5.30;;;1.93;;
16642;SDS011;8435;52.184;5.406;2023-04-25T05:30:38;3.67;;;1.80;;
16642;SDS011;8435;52.184;5.406;2023-04-25T05:33:05;3.60;;;2.00;;
16642;SDS011;8435;52.184;5.406;2023-04-25T05:35:32;5.43;;;1.50;;
16642;SDS011;8435;52.184;5.406;2023-04-25T05:37:59;3.13;;;1.80;;
16642;SDS011;8435;52.184;5.406;2023-04-25T05:40:27;4.00;;;1.50;;
16642;SDS011;8435;52.184;5.406;2023-04-25T05:42:54;4.03;;;1.80;;
16642;SDS011;8435;52.184;5.406;2023-04-25T05:45:21;5.40;;;1.63;;
16642;SDS011;8435;52.184;5.406;2023-04-25T05:47:50;3.83;;;2.10;;
16642;SDS011;8435;52.184;5.406;2023-04-25T05:50:17;4.80;;;2.00;;
16642;SDS011;8435;52.184;5.406;2023-04-25T05:52:44;3.53;;;1.70;;
16642;SDS011;8435;52.184;5.406;2023-04-25T05:55:10;4.57;;;2.00;;
16642;SDS011;8435;52.184;5.406;2023-04-25T05:57:39;3.60;;;1.90;;
16642;SDS011;8435;52.184;5.406;2023-04-25T06:00:07;1.97;;;1.60;;
16642;SDS011;8435;52.184;5.406;2023-04-25T06:02:34;2.60;;;1.77;;
16642;SDS011;8435;52.184;5.406;2023-04-25T06:05:01;3.93;;;1.90;;
16642;SDS011;8435;52.184;5.406;2023-04-25T06:07:28;3.53;;;1.57;;
16642;SDS011;8435;52.184;5.406;2023-04-25T06:09:55;5.00;;;1.70;;
16642;SDS011;8435;52.184;5.406;2023-04-25T06:12:22;6.53;;;1.60;;
16642;SDS011;8435;52.184;5.406;2023-04-25T06:14:50;4.87;;;1.53;;
16642;SDS011;8435;52.184;5.406;2023-04-25T06:17:19;4.13;;;1.67;;
16642;SDS011;8435;52.184;5.406;2023-04-25T06:19:46;4.50;;;1.70;;
16642;SDS011;8435;52.184;5.406;2023-04-25T06:22:14;3.00;;;1.50;;
16642;SDS011;8435;52.184;5.406;2023-04-25T06:24:41;3.20;;;1.63;;
16642;SDS011;8435;52.184;5.406;2023-04-25T06:27:08;4.77;;;2.13;;
16642;SDS011;8435;52.184;5.406;2023-04-25T06:29:35;3.03;;;1.60;;
16642;SDS011;8435;52.184;5.406;2023-04-25T06:32:04;3.97;;;1.70;;
16642;SDS011;8435;52.184;5.406;2023-04-25T06:34:31;5.63;;;1.50;;
16642;SDS011;8435;52.184;5.406;2023-04-25T06:37:02;7.13;;;1.40;;
16642;SDS011;8435;52.184;5.406;2023-04-25T06:39:29;3.00;;;1.47;;
16642;SDS011;8435;52.184;5.406;2023-04-25T06:41:56;4.20;;;1.70;;
16642;SDS011;8435;52.184;5.406;2023-04-25T06:44:23;3.30;;;1.57;;
16642;SDS011;8435;52.184;5.406;2023-04-25T06:46:51;3.47;;;1.70;;
16642;SDS011;8435;52.184;5.406;2023-04-25T06:49:19;7.53;;;2.10;;
16642;SDS011;8435;52.184;5.406;2023-04-25T06:51:47;5.13;;;1.90;;
16642;SDS011;8435;52.184;5.406;2023-04-25T06:54:13;3.83;;;1.87;;
16642;SDS011;8435;52.184;5.406;2023-04-25T06:56:40;4.33;;;1.43;;
16642;SDS011;8435;52.184;5.406;2023-04-25T06:59:07;4.80;;;1.67;;
16642;SDS011;8435;52.184;5.406;2023-04-25T07:01:34;3.23;;;1.60;;
16642;SDS011;8435;52.184;5.406;2023-04-25T07:04:01;5.10;;;1.40;;
16642;SDS011;8435;52.184;5.406;2023-04-25T07:06:29;7.07;;;1.77;;
16642;SDS011;8435;52.184;5.406;2023-04-25T07:08:56;2.33;;;1.27;;
16642;SDS011;8435;52.184;5.406;2023-04-25T07:11:23;5.57;;;1.60;;
16642;SDS011;8435;52.184;5.406;2023-04-25T07:13:50;5.73;;;1.67;;
16642;SDS011;8435;52.184;5.406;2023-04-25T07:16:18;7.60;;;1.70;;
16642;SDS011;8435;52.184;5.406;2023-04-25T07:18:45;6.73;;;1.80;;
16642;SDS011;8435;52.184;5.406;2023-04-25T07:21:11;3.53;;;1.40;;
16642;SDS011;8435;52.184;5.406;2023-04-25T07:23:42;4.63;;;1.67;;
16642;SDS011;8435;52.184;5.406;2023-04-25T07:26:11;3.97;;;1.53;;
16642;SDS011;8435;52.184;5.406;2023-04-25T07:28:40;2.97;;;1.60;;
16642;SDS011;8435;52.184;5.406;2023-04-25T07:31:07;4.53;;;1.83;;
16642;SDS011;8435;52.184;5.406;2023-04-25T07:33:36;5.30;;;2.00;;
16642;SDS011;8435;52.184;5.406;2023-04-25T07:36:03;2.63;;;1.20;;
16642;SDS011;8435;52.184;5.406;2023-04-25T07:38:30;3.13;;;1.60;;
16642;SDS011;8435;52.184;5.406;2023-04-25T07:40:59;7.00;;;2.20;;
16642;SDS011;8435;52.184;5.406;2023-04-25T07:43:28;6.23;;;2.17;;
16642;SDS011;8435;52.184;5.406;2023-04-25T07:45:55;6.53;;;1.83;;
16642;SDS011;8435;52.184;5.406;2023-04-25T07:48:24;6.97;;;1.87;;
16642;SDS011;8435;52.184;5.406;2023-04-25T07:50:51;3.77;;;1.60;;
16642;SDS011;8435;52.184;5.406;2023-04-25T07:53:18;5.83;;;1.40;;
16642;SDS011;8435;52.184;5.406;2023-04-25T07:55:45;5.77;;;1.43;;
16642;SDS011;8435;52.184;5.406;2023-04-25T07:58:13;9.10;;;1.73;;
16642;SDS011;8435;52.184;5.406;2023-04-25T08:00:40;4.17;;;1.40;;
16642;SDS011;8435;52.184;5.406;2023-04-25T08:03:09;4.63;;;1.67;;
16642;SDS011;8435;52.184;5.406;2023-04-25T08:05:35;3.17;;;1.40;;
16642;SDS011;8435;52.184;5.406;2023-04-25T08:08:07;4.43;;;1.67;;
16642;SDS011;8435;52.184;5.406;2023-04-25T08:10:37;4.13;;;1.50;;
16642;SDS011;8435;52.184;5.406;2023-04-25T08:13:04;3.77;;;1.40;;
16642;SDS011;8435;52.184;5.406;2023-04-25T08:15:32;2.90;;;1.30;;
16642;SDS011;8435;52.184;5.406;2023-04-25T08:17:58;3.00;;;1.23;;
16642;SDS011;8435;52.184;5.406;2023-04-25T08:20:25;2.77;;;1.20;;
16642;SDS011;8435;52.184;5.406;2023-04-25T08:22:52;3.77;;;1.50;;
16642;SDS011;8435;52.184;5.406;2023-04-25T08:25:19;4.20;;;1.10;;
16642;SDS011;8435;52.184;5.406;2023-04-25T08:27:46;3.07;;;1.27;;
16642;SDS011;8435;52.184;5.406;2023-04-25T08:30:13;3.67;;;1.30;;
16642;SDS011;8435;52.184;5.406;2023-04-25T08:32:41;4.53;;;1.20;;
16642;SDS011;8435;52.184;5.406;2023-04-25T08:35:08;1.73;;;0.90;;
16642;SDS011;8435;52.184;5.406;2023-04-25T08:37:36;3.47;;;1.13;;
16642;SDS011;8435;52.184;5.406;2023-04-25T08:40:06;3.20;;;1.17;;
16642;SDS011;8435;52.184;5.406;2023-04-25T08:42:37;3.70;;;0.97;;
16642;SDS011;8435;52.184;5.406;2023-04-25T08:45:06;4.90;;;1.10;;
16642;SDS011;8435;52.184;5.406;2023-04-25T08:47:37;2.07;;;0.90;;
16642;SDS011;8435;52.184;5.406;2023-04-25T08:50:06;5.10;;;1.47;;
16642;SDS011;8435;52.184;5.406;2023-04-25T08:52:35;3.87;;;1.47;;
16642;SDS011;8435;52.184;5.406;2023-04-25T08:55:10;3.57;;;1.20;;
16642;SDS011;8435;52.184;5.406;2023-04-25T08:57:39;2.60;;;1.20;;
16642;SDS011;8435;52.184;5.406;2023-04-25T09:00:08;4.07;;;1.40;;
16642;SDS011;8435;52.184;5.406;2023-04-25T09:02:35;2.97;;;1.20;;
16642;SDS011;8435;52.184;5.406;2023-04-25T09:05:02;3.60;;;1.00;;
16642;SDS011;8435;52.184;5.406;2023-04-25T09:07:31;2.83;;;1.43;;
16642;SDS011;8435;52.184;5.406;2023-04-25T09:09:58;4.73;;;1.47;;
16642;SDS011;8435;52.184;5.406;2023-04-25T09:12:27;3.03;;;1.30;;
16642;SDS011;8435;52.184;5.406;2023-04-25T09:15:05;2.00;;;1.00;;
16642;SDS011;8435;52.184;5.406;2023-04-25T09:17:33;4.27;;;1.07;;
16642;SDS011;8435;52.184;5.406;2023-04-25T09:20:05;4.07;;;1.60;;
16642;SDS011;8435;52.184;5.406;2023-04-25T09:22:35;2.40;;;1.30;;
16642;SDS011;8435;52.184;5.406;2023-04-25T09:25:03;3.13;;;1.47;;
16642;SDS011;8435;52.184;5.406;2023-04-25T09:27:33;4.67;;;1.40;;
16642;SDS011;8435;52.184;5.406;2023-04-25T09:30:00;2.97;;;1.10;;
16642;SDS011;8435;52.184;5.406;2023-04-25T09:32:29;3.60;;;1.40;;
16642;SDS011;8435;52.184;5.406;2023-04-25T09:34:56;3.17;;;1.10;;
16642;SDS011;8435;52.184;5.406;2023-04-25T09:37:27;2.83;;;1.00;;
16642;SDS011;8435;52.184;5.406;2023-04-25T09:39:56;2.93;;;1.17;;
16642;SDS011;8435;52.184;5.406;2023-04-25T09:42:30;4.07;;;1.33;;
16642;SDS011;8435;52.184;5.406;2023-04-25T09:45:01;3.77;;;1.10;;
16642;SDS011;8435;52.184;5.406;2023-04-25T09:47:29;2.70;;;0.93;;
16642;SDS011;8435;52.184;5.406;2023-04-25T09:49:57;2.27;;;1.13;;
16642;SDS011;8435;52.184;5.406;2023-04-25T09:52:27;2.07;;;1.10;;
16642;SDS011;8435;52.184;5.406;2023-04-25T09:54:55;3.33;;;1.00;;
16642;SDS011;8435;52.184;5.406;2023-04-25T09:57:23;3.03;;;0.90;;
16642;SDS011;8435;52.184;5.406;2023-04-25T09:59:51;3.43;;;1.13;;
16642;SDS011;8435;52.184;5.406;2023-04-25T10:02:21;1.93;;;0.83;;
16642;SDS011;8435;52.184;5.406;2023-04-25T10:04:49;3.93;;;1.40;;
16642;SDS011;8435;52.184;5.406;2023-04-25T10:07:19;2.23;;;1.17;;
16642;SDS011;8435;52.184;5.406;2023-04-25T10:09:48;2.87;;;1.17;;
16642;SDS011;8435;52.184;5.406;2023-04-25T10:12:19;3.53;;;1.40;;
16642;SDS011;8435;52.184;5.406;2023-04-25T10:14:46;2.30;;;1.30;;
16642;SDS011;8435;52.184;5.406;2023-04-25T10:17:14;4.63;;;1.10;;
16642;SDS011;8435;52.184;5.406;2023-04-25T10:19:41;2.53;;;0.90;;
16642;SDS011;8435;52.184;5.406;2023-04-25T10:22:08;2.90;;;1.10;;
16642;SDS011;8435;52.184;5.406;2023-04-25T10:24:40;1.60;;;1.20;;
16642;SDS011;8435;52.184;5.406;2023-04-25T10:27:10;4.50;;;1.10;;
16642;SDS011;8435;52.184;5.406;2023-04-25T10:29:39;2.10;;;0.83;;
16642;SDS011;8435;52.184;5.406;2023-04-25T10:32:10;5.47;;;1.30;;
16642;SDS011;8435;52.184;5.406;2023-04-25T10:34:37;1.63;;;0.93;;
16642;SDS011;8435;52.184;5.406;2023-04-25T10:37:05;1.80;;;1.30;;
16642;SDS011;8435;52.184;5.406;2023-04-25T10:39:37;2.80;;;1.40;;
16642;SDS011;8435;52.184;5.406;2023-04-25T10:42:06;1.20;;;0.80;;
16642;SDS011;8435;52.184;5.406;2023-04-25T10:44:33;2.70;;;1.03;;
16642;SDS011;8435;52.184;5.406;2023-04-25T10:47:06;3.50;;;1.13;;
16642;SDS011;8435;52.184;5.406;2023-04-25T10:49:34;2.97;;;1.23;;
16642;SDS011;8435;52.184;5.406;2023-04-25T10:52:12;4.97;;;1.60;;
16642;SDS011;8435;52.184;5.406;2023-04-25T10:54:41;3.20;;;1.20;;
16642;SDS011;8435;52.184;5.406;2023-04-25T10:59:57;5.70;;;1.40;;
16642;SDS011;8435;52.184;5.406;2023-04-25T11:02:27;3.77;;;1.30;;
16642;SDS011;8435;52.184;5.406;2023-04-25T11:04:55;3.03;;;1.50;;
16642;SDS011;8435;52.184;5.406;2023-04-25T11:07:23;2.67;;;1.23;;
16642;SDS011;8435;52.184;5.406;2023-04-25T11:09:57;3.20;;;1.37;;
16642;SDS011;8435;52.184;5.406;2023-04-25T11:12:27;4.73;;;1.73;;
16642;SDS011;8435;52.184;5.406;2023-04-25T11:14:59;2.73;;;1.50;;
16642;SDS011;8435;52.184;5.406;2023-04-25T11:17:31;3.60;;;1.30;;
16642;SDS011;8435;52.184;5.406;2023-04-25T11:19:59;5.00;;;1.50;;
16642;SDS011;8435;52.184;5.406;2023-04-25T11:22:26;1.60;;;0.93;;
16642;SDS011;8435;52.184;5.406;2023-04-25T11:24:53;2.80;;;1.13;;
16642;SDS011;8435;52.184;5.406;2023-04-25T11:27:20;4.47;;;1.20;;
16642;SDS011;8435;52.184;5.406;2023-04-25T11:29:49;1.70;;;0.70;;
16642;SDS011;8435;52.184;5.406;2023-04-25T11:32:20;3.43;;;1.20;;
16642;SDS011;8435;52.184;5.406;2023-04-25T11:34:48;2.83;;;1.00;;
16642;SDS011;8435;52.184;5.406;2023-04-25T11:37:15;2.57;;;0.90;;
16642;SDS011;8435;52.184;5.406;2023-04-25T11:39:42;2.37;;;0.90;;
16642;SDS011;8435;52.184;5.406;2023-04-25T11:42:11;2.80;;;1.13;;
16642;SDS011;8435;52.184;5.406;2023-04-25T11:44:38;2.93;;;1.03;;
16642;SDS011;8435;52.184;5.406;2023-04-25T11:47:06;2.80;;;1.03;;
16642;SDS011;8435;52.184;5.406;2023-04-25T11:49:33;4.53;;;1.37;;
16642;SDS011;8435;52.184;5.406;2023-04-25T11:52:07;3.20;;;1.27;;
16642;SDS011;8435;52.184;5.406;2023-04-25T11:54:35;2.10;;;1.17;;
16642;SDS011;8435;52.184;5.406;2023-04-25T11:57:02;2.60;;;1.30;;
16642;SDS011;8435;52.184;5.406;2023-04-25T11:59:30;4.60;;;1.40;;
16642;SDS011;8435;52.184;5.406;2023-04-25T12:02:00;3.47;;;1.20;;
16642;SDS011;8435;52.184;5.406;2023-04-25T12:04:29;4.50;;;1.30;;
16642;SDS011;8435;52.184;5.406;2023-04-25T12:06:57;3.67;;;1.30;;
16642;SDS011;8435;52.184;5.406;2023-04-25T12:09:29;4.70;;;1.30;;
16642;SDS011;8435;52.184;5.406;2023-04-25T12:12:01;3.33;;;1.37;;
16642;SDS011;8435;52.184;5.406;2023-04-25T12:14:31;3.80;;;1.60;;
16642;SDS011;8435;52.184;5.406;2023-04-25T12:16:59;2.63;;;1.10;;
16642;SDS011;8435;52.184;5.406;2023-04-25T12:19:32;4.30;;;1.50;;
16642;SDS011;8435;52.184;5.406;2023-04-25T12:21:59;2.90;;;1.60;;
16642;SDS011;8435;52.184;5.406;2023-04-25T12:24:29;2.57;;;1.20;;
16642;SDS011;8435;52.184;5.406;2023-04-25T12:27:00;3.77;;;1.33;;
16642;SDS011;8435;52.184;5.406;2023-04-25T12:29:30;2.90;;;1.07;;
16642;SDS011;8435;52.184;5.406;2023-04-25T12:31:58;3.40;;;1.00;;
16642;SDS011;8435;52.184;5.406;2023-04-25T12:34:26;1.77;;;0.90;;
16642;SDS011;8435;52.184;5.406;2023-04-25T12:36:54;4.90;;;1.40;;
16642;SDS011;8435;52.184;5.406;2023-04-25T12:39:22;1.90;;;0.83;;
16642;SDS011;8435;52.184;5.406;2023-04-25T12:41:51;1.37;;;0.90;;
16642;SDS011;8435;52.184;5.406;2023-04-25T12:44:19;2.77;;;0.80;;
16642;SDS011;8435;52.184;5.406;2023-04-25T12:46:46;2.20;;;0.80;;
16642;SDS011;8435;52.184;5.406;2023-04-25T12:49:17;3.53;;;0.90;;
16642;SDS011;8435;52.184;5.406;2023-04-25T12:51:44;1.67;;;0.93;;
16642;SDS011;8435;52.184;5.406;2023-04-25T12:54:11;2.70;;;1.10;;
16642;SDS011;8435;52.184;5.406;2023-04-25T12:56:39;3.57;;;1.47;;
16642;SDS011;8435;52.184;5.406;2023-04-25T12:59:08;1.37;;;0.80;;
16642;SDS011;8435;52.184;5.406;2023-04-25T13:01:35;3.77;;;1.00;;
16642;SDS011;8435;52.184;5.406;2023-04-25T13:04:03;2.87;;;1.10;;
16642;SDS011;8435;52.184;5.406;2023-04-25T13:06:30;2.70;;;1.00;;
16642;SDS011;8435;52.184;5.406;2023-04-25T13:09:00;1.73;;;1.00;;
16642;SDS011;8435;52.184;5.406;2023-04-25T13:11:26;1.83;;;1.30;;
16642;SDS011;8435;52.184;5.406;2023-04-25T13:13:53;2.27;;;1.30;;
16642;SDS011;8435;52.184;5.406;2023-04-25T13:16:21;3.00;;;1.10;;
16642;SDS011;8435;52.184;5.406;2023-04-25T13:18:51;2.57;;;1.20;;
16642;SDS011;8435;52.184;5.406;2023-04-25T13:21:18;2.50;;;1.30;;
16642;SDS011;8435;52.184;5.406;2023-04-25T13:23:45;3.53;;;1.40;;
16642;SDS011;8435;52.184;5.406;2023-04-25T13:26:15;2.80;;;1.00;;
16642;SDS011;8435;52.184;5.406;2023-04-25T13:28:42;2.17;;;1.03;;
16642;SDS011;8435;52.184;5.406;2023-04-25T13:31:08;3.17;;;1.40;;
16642;SDS011;8435;52.184;5.406;2023-04-25T13:33:36;2.60;;;1.00;;
16642;SDS011;8435;52.184;5.406;2023-04-25T13:36:03;2.57;;;1.03;;
16642;SDS011;8435;52.184;5.406;2023-04-25T13:38:30;4.97;;;1.00;;
16642;SDS011;8435;52.184;5.406;2023-04-25T13:40:57;2.27;;;1.13;;
16642;SDS011;8435;52.184;5.406;2023-04-25T13:43:24;4.30;;;1.33;;
16642;SDS011;8435;52.184;5.406;2023-04-25T13:45:50;2.47;;;1.20;;
16642;SDS011;8435;52.184;5.406;2023-04-25T13:48:18;3.63;;;1.40;;
16642;SDS011;8435;52.184;5.406;2023-04-25T13:50:47;1.43;;;1.00;;
16642;SDS011;8435;52.184;5.406;2023-04-25T13:53:13;3.60;;;1.10;;
16642;SDS011;8435;52.184;5.406;2023-04-25T13:55:40;2.93;;;1.20;;
16642;SDS011;8435;52.184;5.406;2023-04-25T13:58:07;2.20;;;1.10;;
16642;SDS011;8435;52.184;5.406;2023-04-25T14:00:35;3.40;;;1.50;;
16642;SDS011;8435;52.184;5.406;2023-04-25T14:03:03;3.27;;;1.07;;
16642;SDS011;8435;52.184;5.406;2023-04-25T14:05:32;2.73;;;1.10;;
16642;SDS011;8435;52.184;5.406;2023-04-25T14:08:04;3.90;;;1.20;;
16642;SDS011;8435;52.184;5.406;2023-04-25T14:10:35;2.77;;;1.10;;
16642;SDS011;8435;52.184;5.406;2023-04-25T14:13:02;2.03;;;1.07;;
16642;SDS011;8435;52.184;5.406;2023-04-25T14:15:30;2.20;;;1.20;;
16642;SDS011;8435;52.184;5.406;2023-04-25T14:18:00;5.23;;;1.50;;
16642;SDS011;8435;52.184;5.406;2023-04-25T14:20:27;1.90;;;1.10;;
16642;SDS011;8435;52.184;5.406;2023-04-25T14:22:55;2.20;;;1.50;;
16642;SDS011;8435;52.184;5.406;2023-04-25T14:25:24;4.00;;;1.37;;
16642;SDS011;8435;52.184;5.406;2023-04-25T14:27:51;5.30;;;1.57;;
16642;SDS011;8435;52.184;5.406;2023-04-25T14:30:18;3.97;;;1.47;;
16642;SDS011;8435;52.184;5.406;2023-04-25T14:32:45;2.63;;;1.10;;
16642;SDS011;8435;52.184;5.406;2023-04-25T14:35:12;2.63;;;1.40;;
16642;SDS011;8435;52.184;5.406;2023-04-25T14:37:40;3.67;;;1.43;;
16642;SDS011;8435;52.184;5.406;2023-04-25T14:40:10;2.70;;;1.57;;
16642;SDS011;8435;52.184;5.406;2023-04-25T14:42:39;4.60;;;1.30;;
16642;SDS011;8435;52.184;5.406;2023-04-25T14:45:07;2.87;;;1.20;;
16642;SDS011;8435;52.184;5.406;2023-04-25T14:47:39;3.30;;;1.37;;
16642;SDS011;8435;52.184;5.406;2023-04-25T14:50:07;2.43;;;1.23;;
16642;SDS011;8435;52.184;5.406;2023-04-25T14:52:34;3.00;;;1.20;;
16642;SDS011;8435;52.184;5.406;2023-04-25T14:55:02;2.77;;;1.20;;
16642;SDS011;8435;52.184;5.406;2023-04-25T14:57:30;2.77;;;1.20;;
16642;SDS011;8435;52.184;5.406;2023-04-25T14:59:58;2.83;;;1.13;;
16642;SDS011;8435;52.184;5.406;2023-04-25T15:02:25;4.50;;;1.20;;
16642;SDS011;8435;52.184;5.406;2023-04-25T15:04:52;2.77;;;1.23;;
16642;SDS011;8435;52.184;5.406;2023-04-25T15:07:20;2.47;;;1.20;;